Flight Track Log - Related Links

Times and Time Zones

All times are in EDT time to prevent confusion due to time zone crossing. See the TCF5920 flight status page for this flight to view local times or setup timezone preferences in your user account.

Time Position Orientation Groundspeed Altitude Reporting Facility
EDT Latitude Longitude Course Direction KTS MPH feet Rate Location/Type
Tue 04:21:29 PM 38.8667 -77.0500 76° East 139 160 900  Level Potomac TRACON
Tue 04:22:29 PM 38.9000 -77.0833 322° Northwest 198 228 3,200 2,579 Climbing Potomac TRACON
Tue 04:23:30 PM 38.9500 -77.1500 314° West 268 308 6,100 2,974 Climbing Potomac TRACON
Tue 04:24:00 PM 39.0735 -76.6892 90° East  Level Estimated
Tue 04:24:24 PM 39.0167 -77.2000 330° Northwest 284 327 8,900  Level Potomac TRACON
Tue 04:25:00 PM 39.1287 -76.6018 90° East  Level Estimated
Tue 04:25:25 PM 39.0667 -77.2667 314° West 284 327 9,000  Level Potomac TRACON
Tue 04:26:00 PM 39.1839 -76.5142 76° East  Level Estimated
Tue 04:26:25 PM 39.1167 -77.2167 38° Northeast 304 350 9,900  Level Potomac TRACON
Tue 04:27:58 PM 39.0692 -77.0647 112° Southeast 327 376 12,600 1,947 Climbing Washington Center
Tue 04:28:56 PM 39.0622 -76.9283 94° East 346 398 14,800 2,168 Climbing Washington Center
Tue 04:29:57 PM 39.0533 -76.7892 95° East 369 425 16,900 1,785 Climbing Washington Center
Tue 04:30:57 PM 39.0525 -76.6419 90° East 389 448 18,400 1,636 Climbing Washington Center
Tue 04:31:58 PM 39.0789 -76.4900 77° East 409 471 20,200 1,289 Climbing Washington Center
Tue 04:32:58 PM 39.1028 -76.3353 79° East 426 490 21,000 400 Climbing Washington Center
Tue 04:33:58 PM 39.1286 -76.1803 78° East 437 503 21,000  Level Washington Center
Tue 04:34:56 PM 39.1814 -76.0386 64° Northeast 437 503 21,000  Level Washington Center
Tue 04:35:57 PM 39.2444 -75.9025 59° Northeast 432 497 21,000  Level Washington Center
Tue 04:36:58 PM 39.3133 -75.7739 55° Northeast 427 491 21,000  Level Washington Center
Tue 04:37:58 PM 39.3844 -75.6481 54° Northeast 433 498 21,000  Level Washington Center
Tue 04:39:00 PM 39.4309 -75.5384 57° Northeast  Level FlightAware Approximate
Tue 04:39:56 PM 39.5258 -75.3897 57° Northeast 438 504 21,000  Level Washington Center
Tue 04:40:57 PM 39.5944 -75.2656 54° Northeast 438 504 21,000 -149 Level Washington Center
Tue 04:41:57 PM 39.6750 -75.1250 53° Northeast 433 498 20,700 -1,140 Descending Washington Center
Tue 04:42:58 PM 39.7581 -75.0436 37° Northeast 421 484 18,700 -2,132 Descending Washington Center
Tue 04:43:58 PM 39.8597 -74.9564 33° Northeast 407 468 16,400 -2,268 Descending Washington Center
Tue 04:45:05 PM 39.9500 -74.8500 42° Northeast 384 442 13,900 -2,220 Descending New York TRACON
Tue 04:46:05 PM 40.0333 -74.7500 43° Northeast 371 427 11,700 -1,900 Descending New York TRACON
Tue 04:47:05 PM 40.0833 -74.6667 52° Northeast 313 360 10,100 -850 Descending New York TRACON
Tue 04:48:05 PM 40.1667 -74.6500 North 277 319 10,000  Descending New York TRACON
Tue 04:49:05 PM 40.2000 -74.5833 57° Northeast 306 352 10,100 50 Climbing New York TRACON
Tue 04:50:05 PM 40.2333 -74.4667 69° East 303 349 10,100 -200 Level New York TRACON
Tue 04:51:05 PM 40.2833 -74.4000 45° Northeast 292 336 9,700 -700 Descending New York TRACON
Tue 04:52:05 PM 40.3333 -74.3167 52° Northeast 284 327 8,700 -1,000 Descending New York TRACON
Tue 04:53:05 PM 40.4000 -74.2500 37° Northeast 277 319 7,700 -850 Descending New York TRACON
Tue 04:54:05 PM 40.4500 -74.1833 45° Northeast 270 311 7,000 -650 Descending New York TRACON
Tue 04:55:05 PM 40.5000 -74.1167 45° Northeast 227 261 6,400 -793 Descending New York TRACON
Tue 04:56:06 PM 40.5333 -74.0667 49° Northeast 217 250 5,400 -1,000 Descending New York TRACON
Tue 04:57:05 PM 40.5833 -74.0333 27° Northeast 206 237 4,400 -1,000 Descending New York TRACON
Tue 04:58:06 PM 40.6333 -74.0000 27° Northeast 217 250 3,400 -950 Descending New York TRACON
Tue 04:59:05 PM 40.6833 -73.9500 37° Northeast 218 251 2,500 -706 Descending New York TRACON
Tue 05:00:05 PM 40.7333 -73.9000 37° Northeast 198 228 2,000 -843 Descending New York TRACON
Tue 05:01:06 PM 40.7333 -73.8500 90° East 146 168 800 -1,180 Descending New York TRACON

Login

Don't have an account? Register now (free) for customized features, flight alerts, and more!